sensor_id;sensor_type;location;lat;lon;timestamp;P1;durP1;ratioP1;P2;durP2;ratioP2
23338;SDS011;11841;49.368;20.962;2023-04-21T00:01:33;8.25;;;4.70;;
23338;SDS011;11841;49.368;20.962;2023-04-21T00:04:18;8.70;;;4.68;;
23338;SDS011;11841;49.368;20.962;2023-04-21T00:07:04;14.07;;;5.28;;
23338;SDS011;11841;49.368;20.962;2023-04-21T00:09:49;10.38;;;4.70;;
23338;SDS011;11841;49.368;20.962;2023-04-21T00:12:35;15.02;;;5.93;;
23338;SDS011;11841;49.368;20.962;2023-04-21T00:15:20;11.10;;;4.22;;
23338;SDS011;11841;49.368;20.962;2023-04-21T00:18:06;6.35;;;5.00;;
23338;SDS011;11841;49.368;20.962;2023-04-21T00:20:52;11.70;;;4.03;;
23338;SDS011;11841;49.368;20.962;2023-04-21T00:23:37;9.93;;;4.63;;
23338;SDS011;11841;49.368;20.962;2023-04-21T00:26:22;8.57;;;5.00;;
23338;SDS011;11841;49.368;20.962;2023-04-21T00:29:08;11.80;;;4.88;;
23338;SDS011;11841;49.368;20.962;2023-04-21T00:31:53;8.18;;;4.72;;
23338;SDS011;11841;49.368;20.962;2023-04-21T00:34:38;13.95;;;7.00;;
23338;SDS011;11841;49.368;20.962;2023-04-21T00:37:24;9.55;;;4.30;;
23338;SDS011;11841;49.368;20.962;2023-04-21T00:40:09;12.60;;;5.78;;
23338;SDS011;11841;49.368;20.962;2023-04-21T00:42:55;10.88;;;4.50;;
23338;SDS011;11841;49.368;20.962;2023-04-21T00:45:43;7.72;;;5.05;;
23338;SDS011;11841;49.368;20.962;2023-04-21T00:48:29;12.73;;;4.60;;
23338;SDS011;11841;49.368;20.962;2023-04-21T00:51:15;14.85;;;5.50;;
23338;SDS011;11841;49.368;20.962;2023-04-21T00:54:04;11.38;;;4.60;;
23338;SDS011;11841;49.368;20.962;2023-04-21T00:56:50;8.82;;;4.82;;
23338;SDS011;11841;49.368;20.962;2023-04-21T00:59:35;9.88;;;4.30;;
23338;SDS011;11841;49.368;20.962;2023-04-21T01:02:21;5.30;;;3.58;;
23338;SDS011;11841;49.368;20.962;2023-04-21T01:05:07;18.80;;;6.20;;
23338;SDS011;11841;49.368;20.962;2023-04-21T01:07:53;11.57;;;4.65;;
23338;SDS011;11841;49.368;20.962;2023-04-21T01:10:38;14.93;;;4.35;;
23338;SDS011;11841;49.368;20.962;2023-04-21T01:13:23;10.65;;;4.68;;
23338;SDS011;11841;49.368;20.962;2023-04-21T01:16:08;12.05;;;4.47;;
23338;SDS011;11841;49.368;20.962;2023-04-21T01:19:01;14.85;;;5.43;;
23338;SDS011;11841;49.368;20.962;2023-04-21T01:21:49;11.65;;;5.97;;
23338;SDS011;11841;49.368;20.962;2023-04-21T01:24:46;12.25;;;5.25;;
23338;SDS011;11841;49.368;20.962;2023-04-21T01:27:32;10.20;;;4.20;;
23338;SDS011;11841;49.368;20.962;2023-04-21T01:30:18;10.45;;;4.88;;
23338;SDS011;11841;49.368;20.962;2023-04-21T01:33:03;13.15;;;4.63;;
23338;SDS011;11841;49.368;20.962;2023-04-21T01:35:49;9.00;;;4.60;;
23338;SDS011;11841;49.368;20.962;2023-04-21T01:38:41;12.82;;;4.90;;
23338;SDS011;11841;49.368;20.962;2023-04-21T01:41:26;9.25;;;4.85;;
23338;SDS011;11841;49.368;20.962;2023-04-21T01:44:12;16.77;;;5.65;;
23338;SDS011;11841;49.368;20.962;2023-04-21T01:46:57;11.98;;;4.60;;
23338;SDS011;11841;49.368;20.962;2023-04-21T01:49:43;11.25;;;4.90;;
23338;SDS011;11841;49.368;20.962;2023-04-21T01:52:28;12.27;;;4.60;;
23338;SDS011;11841;49.368;20.962;2023-04-21T01:55:13;10.15;;;5.03;;
23338;SDS011;11841;49.368;20.962;2023-04-21T01:57:58;11.52;;;5.40;;
23338;SDS011;11841;49.368;20.962;2023-04-21T02:00:44;6.78;;;4.50;;
23338;SDS011;11841;49.368;20.962;2023-04-21T02:03:30;6.68;;;4.32;;
23338;SDS011;11841;49.368;20.962;2023-04-21T02:06:15;10.60;;;4.07;;
23338;SDS011;11841;49.368;20.962;2023-04-21T02:09:01;15.60;;;4.40;;
23338;SDS011;11841;49.368;20.962;2023-04-21T02:11:46;8.57;;;3.90;;
23338;SDS011;11841;49.368;20.962;2023-04-21T02:14:32;10.65;;;4.25;;
23338;SDS011;11841;49.368;20.962;2023-04-21T02:17:17;8.73;;;4.18;;
23338;SDS011;11841;49.368;20.962;2023-04-21T02:20:04;16.90;;;4.95;;
23338;SDS011;11841;49.368;20.962;2023-04-21T02:22:50;7.40;;;3.70;;
23338;SDS011;11841;49.368;20.962;2023-04-21T02:25:36;9.18;;;4.32;;
23338;SDS011;11841;49.368;20.962;2023-04-21T02:28:21;14.88;;;3.85;;
23338;SDS011;11841;49.368;20.962;2023-04-21T02:31:06;6.32;;;3.92;;
23338;SDS011;11841;49.368;20.962;2023-04-21T02:33:52;11.15;;;4.65;;
23338;SDS011;11841;49.368;20.962;2023-04-21T02:36:38;7.65;;;4.20;;
23338;SDS011;11841;49.368;20.962;2023-04-21T02:39:24;11.25;;;4.60;;
23338;SDS011;11841;49.368;20.962;2023-04-21T02:42:09;14.32;;;4.18;;
23338;SDS011;11841;49.368;20.962;2023-04-21T02:44:54;17.30;;;4.13;;
23338;SDS011;11841;49.368;20.962;2023-04-21T02:47:39;10.18;;;4.03;;
23338;SDS011;11841;49.368;20.962;2023-04-21T02:50:25;15.02;;;4.28;;
23338;SDS011;11841;49.368;20.962;2023-04-21T02:53:10;10.15;;;4.35;;
23338;SDS011;11841;49.368;20.962;2023-04-21T02:55:55;10.15;;;4.25;;
23338;SDS011;11841;49.368;20.962;2023-04-21T02:58:41;10.57;;;5.15;;
23338;SDS011;11841;49.368;20.962;2023-04-21T03:01:26;8.18;;;3.97;;
23338;SDS011;11841;49.368;20.962;2023-04-21T03:04:11;16.27;;;4.30;;
23338;SDS011;11841;49.368;20.962;2023-04-21T03:06:57;12.90;;;4.63;;
23338;SDS011;11841;49.368;20.962;2023-04-21T03:09:42;6.93;;;3.78;;
23338;SDS011;11841;49.368;20.962;2023-04-21T03:12:27;7.10;;;4.57;;
23338;SDS011;11841;49.368;20.962;2023-04-21T03:15:12;8.27;;;4.10;;
23338;SDS011;11841;49.368;20.962;2023-04-21T03:17:58;11.30;;;5.15;;
23338;SDS011;11841;49.368;20.962;2023-04-21T03:20:43;11.18;;;4.57;;
23338;SDS011;11841;49.368;20.962;2023-04-21T03:23:28;11.25;;;4.72;;
23338;SDS011;11841;49.368;20.962;2023-04-21T03:26:14;8.93;;;5.60;;
23338;SDS011;11841;49.368;20.962;2023-04-21T03:28:59;8.75;;;4.10;;
23338;SDS011;11841;49.368;20.962;2023-04-21T03:31:44;12.88;;;5.22;;
23338;SDS011;11841;49.368;20.962;2023-04-21T03:34:30;11.45;;;4.85;;
23338;SDS011;11841;49.368;20.962;2023-04-21T03:37:15;6.82;;;4.05;;
23338;SDS011;11841;49.368;20.962;2023-04-21T03:40:00;9.07;;;4.72;;
23338;SDS011;11841;49.368;20.962;2023-04-21T03:42:46;6.60;;;4.25;;
23338;SDS011;11841;49.368;20.962;2023-04-21T03:45:33;7.05;;;3.97;;
23338;SDS011;11841;49.368;20.962;2023-04-21T03:48:19;11.15;;;4.65;;
23338;SDS011;11841;49.368;20.962;2023-04-21T03:51:04;10.68;;;5.18;;
23338;SDS011;11841;49.368;20.962;2023-04-21T03:53:49;8.52;;;4.38;;
23338;SDS011;11841;49.368;20.962;2023-04-21T03:56:35;10.35;;;4.55;;
23338;SDS011;11841;49.368;20.962;2023-04-21T03:59:20;10.13;;;5.18;;
23338;SDS011;11841;49.368;20.962;2023-04-21T04:02:06;11.32;;;4.85;;
23338;SDS011;11841;49.368;20.962;2023-04-21T04:04:51;6.85;;;3.97;;
23338;SDS011;11841;49.368;20.962;2023-04-21T04:07:36;11.75;;;5.15;;
23338;SDS011;11841;49.368;20.962;2023-04-21T04:10:21;11.88;;;5.03;;
23338;SDS011;11841;49.368;20.962;2023-04-21T04:13:07;9.23;;;4.70;;
23338;SDS011;11841;49.368;20.962;2023-04-21T04:15:52;11.80;;;4.82;;
23338;SDS011;11841;49.368;20.962;2023-04-21T04:18:38;11.40;;;4.93;;
23338;SDS011;11841;49.368;20.962;2023-04-21T04:21:23;9.45;;;5.05;;
23338;SDS011;11841;49.368;20.962;2023-04-21T04:24:09;9.05;;;4.35;;
23338;SDS011;11841;49.368;20.962;2023-04-21T04:26:55;9.68;;;4.20;;
23338;SDS011;11841;49.368;20.962;2023-04-21T04:29:42;8.82;;;4.60;;
23338;SDS011;11841;49.368;20.962;2023-04-21T04:32:28;7.43;;;4.55;;
23338;SDS011;11841;49.368;20.962;2023-04-21T04:35:13;8.18;;;4.80;;
23338;SDS011;11841;49.368;20.962;2023-04-21T04:37:59;12.23;;;5.10;;
23338;SDS011;11841;49.368;20.962;2023-04-21T04:40:51;11.88;;;4.78;;
23338;SDS011;11841;49.368;20.962;2023-04-21T04:43:37;7.90;;;4.30;;
23338;SDS011;11841;49.368;20.962;2023-04-21T04:46:23;9.65;;;4.22;;
23338;SDS011;11841;49.368;20.962;2023-04-21T04:49:08;9.65;;;4.57;;
23338;SDS011;11841;49.368;20.962;2023-04-21T04:51:53;10.32;;;4.45;;
23338;SDS011;11841;49.368;20.962;2023-04-21T04:54:39;8.45;;;4.57;;
23338;SDS011;11841;49.368;20.962;2023-04-21T04:57:24;11.27;;;5.15;;
23338;SDS011;11841;49.368;20.962;2023-04-21T05:00:09;12.82;;;4.97;;
23338;SDS011;11841;49.368;20.962;2023-04-21T05:02:55;10.70;;;4.70;;
23338;SDS011;11841;49.368;20.962;2023-04-21T05:05:40;8.70;;;4.60;;
23338;SDS011;11841;49.368;20.962;2023-04-21T05:08:26;8.82;;;4.97;;
23338;SDS011;11841;49.368;20.962;2023-04-21T05:11:11;17.17;;;5.65;;
23338;SDS011;11841;49.368;20.962;2023-04-21T05:13:57;7.38;;;5.18;;
23338;SDS011;11841;49.368;20.962;2023-04-21T05:16:42;10.15;;;5.40;;
23338;SDS011;11841;49.368;20.962;2023-04-21T05:19:28;8.23;;;4.60;;
23338;SDS011;11841;49.368;20.962;2023-04-21T05:22:13;16.17;;;5.22;;
23338;SDS011;11841;49.368;20.962;2023-04-21T05:24:58;8.75;;;4.47;;
23338;SDS011;11841;49.368;20.962;2023-04-21T05:27:43;9.35;;;4.78;;
23338;SDS011;11841;49.368;20.962;2023-04-21T05:30:28;13.18;;;5.50;;
23338;SDS011;11841;49.368;20.962;2023-04-21T05:33:16;15.40;;;5.68;;
23338;SDS011;11841;49.368;20.962;2023-04-21T05:38:53;14.63;;;5.93;;
23338;SDS011;11841;49.368;20.962;2023-04-21T05:41:38;17.02;;;6.25;;
23338;SDS011;11841;49.368;20.962;2023-04-21T05:44:24;11.65;;;6.45;;
23338;SDS011;11841;49.368;20.962;2023-04-21T05:47:09;12.60;;;6.47;;
23338;SDS011;11841;49.368;20.962;2023-04-21T05:49:55;15.10;;;6.90;;
23338;SDS011;11841;49.368;20.962;2023-04-21T05:52:40;18.13;;;8.10;;
23338;SDS011;11841;49.368;20.962;2023-04-21T05:55:25;21.77;;;8.15;;
23338;SDS011;11841;49.368;20.962;2023-04-21T05:58:10;14.90;;;7.45;;
23338;SDS011;11841;49.368;20.962;2023-04-21T06:00:56;22.67;;;7.53;;
23338;SDS011;11841;49.368;20.962;2023-04-21T06:03:41;14.95;;;7.05;;
23338;SDS011;11841;49.368;20.962;2023-04-21T06:06:26;19.27;;;6.90;;
23338;SDS011;11841;49.368;20.962;2023-04-21T06:09:12;16.15;;;6.80;;
23338;SDS011;11841;49.368;20.962;2023-04-21T06:11:59;24.25;;;8.15;;
23338;SDS011;11841;49.368;20.962;2023-04-21T06:14:45;15.60;;;7.40;;
23338;SDS011;11841;49.368;20.962;2023-04-21T06:17:31;22.58;;;8.60;;
23338;SDS011;11841;49.368;20.962;2023-04-21T06:20:16;16.92;;;9.70;;
23338;SDS011;11841;49.368;20.962;2023-04-21T06:23:01;25.70;;;11.43;;
23338;SDS011;11841;49.368;20.962;2023-04-21T06:25:57;29.42;;;12.27;;
23338;SDS011;11841;49.368;20.962;2023-04-21T06:28:49;23.60;;;10.93;;
23338;SDS011;11841;49.368;20.962;2023-04-21T06:31:34;34.88;;;11.27;;
23338;SDS011;11841;49.368;20.962;2023-04-21T06:34:19;23.33;;;11.10;;
23338;SDS011;11841;49.368;20.962;2023-04-21T06:37:05;19.33;;;9.00;;
23338;SDS011;11841;49.368;20.962;2023-04-21T06:39:51;19.17;;;9.05;;
23338;SDS011;11841;49.368;20.962;2023-04-21T06:42:36;17.40;;;9.77;;
23338;SDS011;11841;49.368;20.962;2023-04-21T06:45:21;17.48;;;10.25;;
23338;SDS011;11841;49.368;20.962;2023-04-21T06:48:07;17.15;;;9.13;;
23338;SDS011;11841;49.368;20.962;2023-04-21T06:50:52;18.05;;;8.05;;
23338;SDS011;11841;49.368;20.962;2023-04-21T06:53:37;14.02;;;6.38;;
23338;SDS011;11841;49.368;20.962;2023-04-21T06:56:23;17.98;;;5.75;;
23338;SDS011;11841;49.368;20.962;2023-04-21T06:59:13;11.70;;;5.35;;
23338;SDS011;11841;49.368;20.962;2023-04-21T07:01:59;12.00;;;5.60;;
23338;SDS011;11841;49.368;20.962;2023-04-21T07:04:44;8.93;;;4.93;;
23338;SDS011;11841;49.368;20.962;2023-04-21T07:07:30;13.88;;;5.38;;
23338;SDS011;11841;49.368;20.962;2023-04-21T07:10:15;14.25;;;5.28;;
23338;SDS011;11841;49.368;20.962;2023-04-21T07:13:03;11.77;;;4.57;;
23338;SDS011;11841;49.368;20.962;2023-04-21T07:15:48;6.78;;;4.50;;
23338;SDS011;11841;49.368;20.962;2023-04-21T07:18:34;10.80;;;4.68;;
23338;SDS011;11841;49.368;20.962;2023-04-21T07:21:19;11.60;;;5.70;;
23338;SDS011;11841;49.368;20.962;2023-04-21T07:24:04;10.55;;;5.07;;
23338;SDS011;11841;49.368;20.962;2023-04-21T07:26:50;12.93;;;5.32;;
23338;SDS011;11841;49.368;20.962;2023-04-21T07:29:35;20.58;;;6.57;;
23338;SDS011;11841;49.368;20.962;2023-04-21T07:32:21;12.18;;;5.05;;
23338;SDS011;11841;49.368;20.962;2023-04-21T07:35:06;13.65;;;5.43;;
23338;SDS011;11841;49.368;20.962;2023-04-21T07:37:52;12.20;;;5.18;;
23338;SDS011;11841;49.368;20.962;2023-04-21T07:40:37;10.35;;;5.43;;
23338;SDS011;11841;49.368;20.962;2023-04-21T07:43:22;10.65;;;6.00;;
23338;SDS011;11841;49.368;20.962;2023-04-21T07:46:09;13.40;;;5.10;;
23338;SDS011;11841;49.368;20.962;2023-04-21T07:48:58;16.13;;;5.88;;
23338;SDS011;11841;49.368;20.962;2023-04-21T07:51:47;11.85;;;5.60;;
23338;SDS011;11841;49.368;20.962;2023-04-21T07:54:33;12.63;;;6.72;;
23338;SDS011;11841;49.368;20.962;2023-04-21T07:57:18;12.98;;;5.43;;
23338;SDS011;11841;49.368;20.962;2023-04-21T08:00:04;12.90;;;5.53;;
23338;SDS011;11841;49.368;20.962;2023-04-21T08:02:50;14.38;;;6.53;;
23338;SDS011;11841;49.368;20.962;2023-04-21T08:05:35;11.48;;;5.85;;
23338;SDS011;11841;49.368;20.962;2023-04-21T08:08:25;14.00;;;5.72;;
23338;SDS011;11841;49.368;20.962;2023-04-21T08:11:10;20.90;;;7.25;;
23338;SDS011;11841;49.368;20.962;2023-04-21T08:13:56;13.95;;;6.05;;
23338;SDS011;11841;49.368;20.962;2023-04-21T08:16:42;14.68;;;5.57;;
23338;SDS011;11841;49.368;20.962;2023-04-21T08:19:27;9.15;;;5.38;;
23338;SDS011;11841;49.368;20.962;2023-04-21T08:22:12;10.93;;;5.88;;
23338;SDS011;11841;49.368;20.962;2023-04-21T08:24:58;13.45;;;6.03;;
23338;SDS011;11841;49.368;20.962;2023-04-21T08:27:43;13.13;;;6.47;;
23338;SDS011;11841;49.368;20.962;2023-04-21T08:30:29;13.07;;;5.15;;
23338;SDS011;11841;49.368;20.962;2023-04-21T08:33:14;10.65;;;6.00;;
23338;SDS011;11841;49.368;20.962;2023-04-21T08:35:59;11.45;;;5.68;;
23338;SDS011;11841;49.368;20.962;2023-04-21T08:38:53;13.20;;;6.20;;
23338;SDS011;11841;49.368;20.962;2023-04-21T08:41:39;17.95;;;6.20;;
23338;SDS011;11841;49.368;20.962;2023-04-21T08:44:25;11.27;;;6.00;;
23338;SDS011;11841;49.368;20.962;2023-04-21T08:47:11;16.30;;;6.20;;
23338;SDS011;11841;49.368;20.962;2023-04-21T08:49:58;13.30;;;7.07;;
23338;SDS011;11841;49.368;20.962;2023-04-21T08:52:43;14.80;;;7.13;;
23338;SDS011;11841;49.368;20.962;2023-04-21T08:55:29;13.95;;;7.43;;
23338;SDS011;11841;49.368;20.962;2023-04-21T08:58:16;10.75;;;5.85;;
23338;SDS011;11841;49.368;20.962;2023-04-21T09:01:01;17.05;;;6.20;;
23338;SDS011;11841;49.368;20.962;2023-04-21T09:03:46;15.43;;;6.25;;
23338;SDS011;11841;49.368;20.962;2023-04-21T09:06:39;12.30;;;6.63;;
23338;SDS011;11841;49.368;20.962;2023-04-21T09:09:28;12.88;;;5.65;;
23338;SDS011;11841;49.368;20.962;2023-04-21T09:12:13;17.27;;;6.63;;
23338;SDS011;11841;49.368;20.962;2023-04-21T09:14:58;16.00;;;7.22;;
23338;SDS011;11841;49.368;20.962;2023-04-21T09:17:53;13.30;;;6.20;;
23338;SDS011;11841;49.368;20.962;2023-04-21T09:20:39;23.42;;;7.65;;
23338;SDS011;11841;49.368;20.962;2023-04-21T09:23:25;14.15;;;6.25;;
23338;SDS011;11841;49.368;20.962;2023-04-21T09:26:11;11.68;;;6.47;;
23338;SDS011;11841;49.368;20.962;2023-04-21T09:28:57;10.82;;;6.32;;
23338;SDS011;11841;49.368;20.962;2023-04-21T09:31:45;13.68;;;6.15;;
23338;SDS011;11841;49.368;20.962;2023-04-21T09:34:30;14.82;;;5.93;;
23338;SDS011;11841;49.368;20.962;2023-04-21T09:37:18;18.25;;;6.50;;
23338;SDS011;11841;49.368;20.962;2023-04-21T09:40:11;11.85;;;5.95;;
23338;SDS011;11841;49.368;20.962;2023-04-21T09:42:58;14.25;;;6.15;;
23338;SDS011;11841;49.368;20.962;2023-04-21T09:45:43;12.52;;;5.85;;
23338;SDS011;11841;49.368;20.962;2023-04-21T09:48:29;12.93;;;6.10;;
23338;SDS011;11841;49.368;20.962;2023-04-21T09:51:19;12.48;;;5.88;;
23338;SDS011;11841;49.368;20.962;2023-04-21T09:54:29;10.60;;;5.28;;
23338;SDS011;11841;49.368;20.962;2023-04-21T09:57:20;8.63;;;5.57;;
23338;SDS011;11841;49.368;20.962;2023-04-21T10:00:09;10.90;;;5.75;;
23338;SDS011;11841;49.368;20.962;2023-04-21T10:02:56;7.93;;;5.15;;
23338;SDS011;11841;49.368;20.962;2023-04-21T10:05:45;6.15;;;4.80;;
23338;SDS011;11841;49.368;20.962;2023-04-21T10:08:30;10.93;;;5.07;;
23338;SDS011;11841;49.368;20.962;2023-04-21T10:11:16;14.55;;;5.82;;
23338;SDS011;11841;49.368;20.962;2023-04-21T10:14:02;11.40;;;5.65;;
23338;SDS011;11841;49.368;20.962;2023-04-21T10:16:54;12.85;;;5.13;;
23338;SDS011;11841;49.368;20.962;2023-04-21T10:19:48;13.18;;;5.15;;
23338;SDS011;11841;49.368;20.962;2023-04-21T10:22:35;8.32;;;5.25;;
23338;SDS011;11841;49.368;20.962;2023-04-21T10:25:22;13.27;;;5.30;;
23338;SDS011;11841;49.368;20.962;2023-04-21T10:28:16;14.98;;;7.07;;
23338;SDS011;11841;49.368;20.962;2023-04-21T10:39:44;7.82;;;4.82;;
23338;SDS011;11841;49.368;20.962;2023-04-21T10:42:35;8.90;;;5.30;;
23338;SDS011;11841;49.368;20.962;2023-04-21T10:45:23;15.13;;;4.57;;
23338;SDS011;11841;49.368;20.962;2023-04-21T10:48:13;5.88;;;3.95;;
23338;SDS011;11841;49.368;20.962;2023-04-21T10:50:58;8.32;;;4.53;;
23338;SDS011;11841;49.368;20.962;2023-04-21T10:53:43;9.80;;;4.68;;
23338;SDS011;11841;49.368;20.962;2023-04-21T10:56:29;8.18;;;4.93;;
23338;SDS011;11841;49.368;20.962;2023-04-21T10:59:15;10.98;;;4.78;;
23338;SDS011;11841;49.368;20.962;2023-04-21T11:02:03;11.43;;;4.70;;
23338;SDS011;11841;49.368;20.962;2023-04-21T11:04:55;7.88;;;5.05;;
23338;SDS011;11841;49.368;20.962;2023-04-21T11:07:40;8.50;;;4.45;;
23338;SDS011;11841;49.368;20.962;2023-04-21T11:10:26;9.68;;;4.40;;
23338;SDS011;11841;49.368;20.962;2023-04-21T11:13:11;14.43;;;6.97;;
23338;SDS011;11841;49.368;20.962;2023-04-21T11:16:00;9.25;;;4.88;;
23338;SDS011;11841;49.368;20.962;2023-04-21T11:18:48;6.45;;;4.18;;
23338;SDS011;11841;49.368;20.962;2023-04-21T11:21:33;8.20;;;4.63;;
23338;SDS011;11841;49.368;20.962;2023-04-21T11:24:21;5.45;;;4.63;;
23338;SDS011;11841;49.368;20.962;2023-04-21T11:27:07;14.67;;;4.40;;
23338;SDS011;11841;49.368;20.962;2023-04-21T11:29:52;7.38;;;4.63;;
23338;SDS011;11841;49.368;20.962;2023-04-21T11:32:37;10.75;;;4.80;;
23338;SDS011;11841;49.368;20.962;2023-04-21T11:35:23;7.35;;;4.97;;
23338;SDS011;11841;49.368;20.962;2023-04-21T11:38:08;6.65;;;4.30;;
23338;SDS011;11841;49.368;20.962;2023-04-21T11:40:54;12.27;;;4.78;;
23338;SDS011;11841;49.368;20.962;2023-04-21T11:43:39;7.80;;;3.80;;
23338;SDS011;11841;49.368;20.962;2023-04-21T11:46:25;10.50;;;5.30;;
23338;SDS011;11841;49.368;20.962;2023-04-21T11:49:11;10.60;;;4.18;;
23338;SDS011;11841;49.368;20.962;2023-04-21T11:51:58;6.18;;;3.83;;
23338;SDS011;11841;49.368;20.962;2023-04-21T11:54:44;5.90;;;4.25;;
23338;SDS011;11841;49.368;20.962;2023-04-21T11:57:30;7.10;;;4.47;;
23338;SDS011;11841;49.368;20.962;2023-04-21T12:00:16;8.15;;;4.82;;
23338;SDS011;11841;49.368;20.962;2023-04-21T12:03:02;8.45;;;4.03;;
23338;SDS011;11841;49.368;20.962;2023-04-21T12:05:54;7.68;;;4.35;;
23338;SDS011;11841;49.368;20.962;2023-04-21T12:08:42;8.55;;;3.80;;
23338;SDS011;11841;49.368;20.962;2023-04-21T12:11:28;5.72;;;4.05;;
23338;SDS011;11841;49.368;20.962;2023-04-21T12:14:15;8.85;;;4.57;;
23338;SDS011;11841;49.368;20.962;2023-04-21T12:17:05;7.63;;;4.43;;
23338;SDS011;11841;49.368;20.962;2023-04-21T12:19:50;8.00;;;4.07;;
23338;SDS011;11841;49.368;20.962;2023-04-21T12:22:35;6.95;;;4.35;;
23338;SDS011;11841;49.368;20.962;2023-04-21T12:25:21;5.88;;;4.18;;
23338;SDS011;11841;49.368;20.962;2023-04-21T12:28:06;14.77;;;5.43;;
23338;SDS011;11841;49.368;20.962;2023-04-21T12:30:53;7.80;;;4.72;;
23338;SDS011;11841;49.368;20.962;2023-04-21T12:33:38;7.88;;;4.60;;
23338;SDS011;11841;49.368;20.962;2023-04-21T12:36:24;7.10;;;4.13;;
23338;SDS011;11841;49.368;20.962;2023-04-21T12:39:12;4.82;;;3.33;;
23338;SDS011;11841;49.368;20.962;2023-04-21T12:41:57;5.43;;;3.97;;
23338;SDS011;11841;49.368;20.962;2023-04-21T12:44:42;8.68;;;4.40;;
23338;SDS011;11841;49.368;20.962;2023-04-21T12:47:28;8.07;;;3.90;;
23338;SDS011;11841;49.368;20.962;2023-04-21T12:50:14;6.20;;;3.78;;
23338;SDS011;11841;49.368;20.962;2023-04-21T12:52:59;7.93;;;4.20;;
23338;SDS011;11841;49.368;20.962;2023-04-21T12:55:45;8.73;;;3.63;;
23338;SDS011;11841;49.368;20.962;2023-04-21T12:58:47;6.53;;;4.07;;
23338;SDS011;11841;49.368;20.962;2023-04-21T13:01:32;7.32;;;3.70;;
23338;SDS011;11841;49.368;20.962;2023-04-21T13:04:18;7.93;;;4.20;;
23338;SDS011;11841;49.368;20.962;2023-04-21T13:07:03;5.35;;;4.15;;
23338;SDS011;11841;49.368;20.962;2023-04-21T13:09:49;12.13;;;4.43;;
23338;SDS011;11841;49.368;20.962;2023-04-21T13:12:34;7.78;;;5.13;;
23338;SDS011;11841;49.368;20.962;2023-04-21T13:15:20;6.20;;;4.47;;
23338;SDS011;11841;49.368;20.962;2023-04-21T13:18:05;4.43;;;3.60;;
23338;SDS011;11841;49.368;20.962;2023-04-21T13:20:51;6.30;;;3.90;;
23338;SDS011;11841;49.368;20.962;2023-04-21T13:23:36;6.03;;;4.28;;
23338;SDS011;11841;49.368;20.962;2023-04-21T13:26:21;6.82;;;4.15;;
23338;SDS011;11841;49.368;20.962;2023-04-21T13:29:07;8.13;;;4.22;;
23338;SDS011;11841;49.368;20.962;2023-04-21T13:31:52;7.55;;;4.40;;
23338;SDS011;11841;49.368;20.962;2023-04-21T13:34:38;6.75;;;4.20;;
23338;SDS011;11841;49.368;20.962;2023-04-21T13:37:23;9.00;;;5.20;;
23338;SDS011;11841;49.368;20.962;2023-04-21T13:40:08;5.40;;;3.95;;
23338;SDS011;11841;49.368;20.962;2023-04-21T13:42:55;5.20;;;3.45;;
23338;SDS011;11841;49.368;20.962;2023-04-21T13:45:42;7.00;;;3.88;;
23338;SDS011;11841;49.368;20.962;2023-04-21T13:48:27;9.15;;;4.57;;
23338;SDS011;11841;49.368;20.962;2023-04-21T13:51:13;7.55;;;4.82;;
23338;SDS011;11841;49.368;20.962;2023-04-21T13:53:58;6.55;;;4.10;;
23338;SDS011;11841;49.368;20.962;2023-04-21T13:56:44;9.65;;;3.95;;
23338;SDS011;11841;49.368;20.962;2023-04-21T13:59:29;6.68;;;4.85;;
23338;SDS011;11841;49.368;20.962;2023-04-21T14:02:16;11.30;;;4.50;;
23338;SDS011;11841;49.368;20.962;2023-04-21T14:05:02;7.40;;;4.40;;
23338;SDS011;11841;49.368;20.962;2023-04-21T14:07:48;9.15;;;4.53;;
23338;SDS011;11841;49.368;20.962;2023-04-21T14:10:33;7.70;;;4.25;;
23338;SDS011;11841;49.368;20.962;2023-04-21T14:13:18;6.57;;;4.15;;
23338;SDS011;11841;49.368;20.962;2023-04-21T14:16:21;9.10;;;5.07;;
23338;SDS011;11841;49.368;20.962;2023-04-21T14:19:06;6.60;;;3.80;;
23338;SDS011;11841;49.368;20.962;2023-04-21T14:21:52;9.18;;;4.72;;
23338;SDS011;11841;49.368;20.962;2023-04-21T14:24:38;9.82;;;4.47;;
23338;SDS011;11841;49.368;20.962;2023-04-21T14:27:23;8.07;;;4.50;;
23338;SDS011;11841;49.368;20.962;2023-04-21T14:30:09;10.32;;;7.07;;
23338;SDS011;11841;49.368;20.962;2023-04-21T14:32:55;6.15;;;4.63;;
23338;SDS011;11841;49.368;20.962;2023-04-21T14:35:40;5.65;;;4.82;;
23338;SDS011;11841;49.368;20.962;2023-04-21T14:38:26;6.03;;;3.85;;
23338;SDS011;11841;49.368;20.962;2023-04-21T14:41:13;6.68;;;4.63;;
23338;SDS011;11841;49.368;20.962;2023-04-21T14:43:58;8.82;;;3.72;;
23338;SDS011;11841;49.368;20.962;2023-04-21T14:46:44;6.63;;;4.38;;
23338;SDS011;11841;49.368;20.962;2023-04-21T14:49:41;6.53;;;3.97;;
23338;SDS011;11841;49.368;20.962;2023-04-21T14:52:27;5.00;;;3.63;;
23338;SDS011;11841;49.368;20.962;2023-04-21T14:55:12;6.63;;;4.32;;
23338;SDS011;11841;49.368;20.962;2023-04-21T14:57:57;10.13;;;4.18;;
23338;SDS011;11841;49.368;20.962;2023-04-21T15:00:42;9.65;;;4.57;;
23338;SDS011;11841;49.368;20.962;2023-04-21T15:03:28;5.05;;;3.58;;
23338;SDS011;11841;49.368;20.962;2023-04-21T15:06:14;6.45;;;3.80;;
23338;SDS011;11841;49.368;20.962;2023-04-21T15:09:00;8.25;;;4.07;;
23338;SDS011;11841;49.368;20.962;2023-04-21T15:11:45;8.60;;;4.10;;
23338;SDS011;11841;49.368;20.962;2023-04-21T15:14:31;7.30;;;4.43;;
23338;SDS011;11841;49.368;20.962;2023-04-21T15:17:16;14.80;;;5.00;;
23338;SDS011;11841;49.368;20.962;2023-04-21T15:20:03;6.15;;;4.25;;
23338;SDS011;11841;49.368;20.962;2023-04-21T15:22:49;6.28;;;4.20;;
23338;SDS011;11841;49.368;20.962;2023-04-21T15:25:34;5.15;;;3.30;;
23338;SDS011;11841;49.368;20.962;2023-04-21T15:28:19;8.05;;;3.53;;
23338;SDS011;11841;49.368;20.962;2023-04-21T15:31:05;12.70;;;4.60;;
23338;SDS011;11841;49.368;20.962;2023-04-21T15:33:53;6.85;;;3.67;;
23338;SDS011;11841;49.368;20.962;2023-04-21T15:36:38;10.32;;;4.28;;
23338;SDS011;11841;49.368;20.962;2023-04-21T15:39:24;5.63;;;3.63;;
23338;SDS011;11841;49.368;20.962;2023-04-21T15:42:09;12.40;;;6.40;;
23338;SDS011;11841;49.368;20.962;2023-04-21T15:44:54;11.93;;;4.07;;
23338;SDS011;11841;49.368;20.962;2023-04-21T15:47:41;6.47;;;4.00;;
23338;SDS011;11841;49.368;20.962;2023-04-21T15:50:26;11.43;;;4.80;;
23338;SDS011;11841;49.368;20.962;2023-04-21T15:53:13;7.18;;;3.83;;
23338;SDS011;11841;49.368;20.962;2023-04-21T15:56:02;6.70;;;3.97;;
23338;SDS011;11841;49.368;20.962;2023-04-21T15:58:50;9.98;;;4.30;;
23338;SDS011;11841;49.368;20.962;2023-04-21T16:01:35;5.53;;;3.85;;
23338;SDS011;11841;49.368;20.962;2023-04-21T16:04:21;8.68;;;4.63;;
23338;SDS011;11841;49.368;20.962;2023-04-21T16:07:07;6.72;;;3.72;;
23338;SDS011;11841;49.368;20.962;2023-04-21T16:09:52;11.43;;;4.55;;
23338;SDS011;11841;49.368;20.962;2023-04-21T16:12:37;9.45;;;4.88;;
23338;SDS011;11841;49.368;20.962;2023-04-21T16:15:23;8.13;;;3.90;;
23338;SDS011;11841;49.368;20.962;2023-04-21T16:18:09;8.48;;;4.45;;
23338;SDS011;11841;49.368;20.962;2023-04-21T16:20:54;5.93;;;3.05;;
23338;SDS011;11841;49.368;20.962;2023-04-21T16:23:39;5.45;;;3.75;;
23338;SDS011;11841;49.368;20.962;2023-04-21T16:26:25;7.30;;;4.28;;
23338;SDS011;11841;49.368;20.962;2023-04-21T16:29:11;9.75;;;3.83;;
23338;SDS011;11841;49.368;20.962;2023-04-21T16:31:56;5.85;;;3.88;;